Chilchinbito, Arizona
Current Conditions -  °F | °C
As of 2:53 AM on Friday 28 Nov 2014 (Local Time) from KPGA Reporting Station
Clear Clear  
Wind Chill: 38°   Ceiling: Unl
Heat Index: 41°   Visibility: 10mi
Dew Point: 17°   Wind: 5mph
Humidity: 38%   Direction: 270°W
Pressure: 30.24"   Gusts: NA
Location:  36.6859°N, 110.268°W
Report Text: KPGA 280953Z AUTO 27004KT 10SM CLR 05/M08 A3024 RMK AO2 SLP222 T00501083 TSNO
Loading
Personal Weather Stations






























Interactive Weather Map New forecast layout! Learn more

10-Day Weather Forecast

Advertisements
Track Severe Weather on mobile